Time,TemperatureF,DewpointF,PressureIn,WindDirection,WindDirectionDegrees,WindSpeedMPH,WindSpeedGustMPH,Humidity,HourlyPrecipIn,Conditions,Clouds,dailyrainin,SoftwareType,DateUTC
2013-10-07 00:10:00,42.6,40.0,29.85,WNW,295,0.0,-999.0,91,-99.99,,,0.00,weatherlink.com 1.10,2013-10-07 05:10:00,
2013-10-07 00:24:00,42.4,40.0,29.85,WNW,295,0.0,-999.0,91,-99.99,,,0.00,weatherlink.com 1.10,2013-10-07 05:24:00,
2013-10-07 00:38:00,42.2,40.0,29.85,WNW,295,0.0,-999.0,91,-99.99,,,0.00,weatherlink.com 1.10,2013-10-07 05:38:00,
2013-10-07 00:53:00,42.1,40.0,29.84,WNW,293,0.0,-999.0,91,-99.99,,,0.00,weatherlink.com 1.10,2013-10-07 05:53:00,
2013-10-07 01:07:00,42.0,40.0,29.85,West,270,0.0,-999.0,91,-99.99,,,0.00,weatherlink.com 1.10,2013-10-07 06:07:00,
2013-10-07 01:21:00,41.9,39.0,29.85,West,270,0.0,-999.0,91,-99.99,,,0.00,weatherlink.com 1.10,2013-10-07 06:21:00,
2013-10-07 01:36:00,41.6,39.0,29.85,West,270,0.0,-999.0,91,-99.99,,,0.00,weatherlink.com 1.10,2013-10-07 06:36:00,
2013-10-07 01:50:00,41.9,39.0,29.85,West,270,0.0,-999.0,91,-99.99,,,0.00,weatherlink.com 1.10,2013-10-07 06:50:00,
2013-10-07 02:04:00,42.1,40.0,29.84,WNW,301,0.0,-999.0,91,-99.99,,,0.00,weatherlink.com 1.10,2013-10-07 07:04:00,
2013-10-07 02:19:00,42.5,40.0,29.84,WSW,244,0.0,-999.0,91,-99.99,,,0.00,weatherlink.com 1.10,2013-10-07 07:19:00,
2013-10-07 02:33:00,42.9,40.0,29.84,SW,231,0.0,-999.0,91,-99.99,,,0.00,weatherlink.com 1.10,2013-10-07 07:33:00,
2013-10-07 02:47:00,43.3,41.0,29.83,WSW,250,0.0,-999.0,92,-99.99,,,0.00,weatherlink.com 1.10,2013-10-07 07:47:00,
2013-10-07 03:02:00,43.9,42.0,29.84,SW,231,1.0,-999.0,92,-99.99,,,0.00,weatherlink.com 1.10,2013-10-07 08:02:00,
2013-10-07 03:16:00,44.5,42.0,29.83,SW,226,0.0,-999.0,91,-99.99,,,0.00,weatherlink.com 1.10,2013-10-07 08:16:00,
2013-10-07 03:30:00,44.8,42.0,29.83,SW,226,1.0,-999.0,91,-99.99,,,0.00,weatherlink.com 1.10,2013-10-07 08:30:00,
2013-10-07 03:45:00,44.9,42.0,29.83,SSW,213,0.0,-999.0,90,-99.99,,,0.00,weatherlink.com 1.10,2013-10-07 08:45:00,
2013-10-07 03:59:00,44.9,42.0,29.83,WSW,237,3.0,-999.0,90,-99.99,,,0.00,weatherlink.com 1.10,2013-10-07 08:59:00,
2013-10-07 04:14:00,44.7,42.0,29.83,SW,226,1.0,-999.0,90,-99.99,,,0.00,weatherlink.com 1.10,2013-10-07 09:14:00,
2013-10-07 04:28:00,44.3,41.0,29.84,WSW,247,1.0,-999.0,89,-99.99,,,0.00,weatherlink.com 1.10,2013-10-07 09:28:00,
2013-10-07 04:42:00,44.0,41.0,29.84,WNW,283,0.0,-999.0,89,-99.99,,,0.00,weatherlink.com 1.10,2013-10-07 09:42:00,
2013-10-07 04:56:00,43.6,41.0,29.84,SSW,210,0.0,-999.0,89,-99.99,,,0.00,weatherlink.com 1.10,2013-10-07 09:56:00,
2013-10-07 05:11:00,43.2,40.0,29.84,SW,221,0.0,-999.0,88,-99.99,,,0.00,weatherlink.com 1.10,2013-10-07 10:11:00,
2013-10-07 05:25:00,42.8,39.0,29.85,West,266,1.0,-999.0,88,-99.99,,,0.00,weatherlink.com 1.10,2013-10-07 10:25:00,
2013-10-07 05:40:00,42.5,39.0,29.85,SSW,194,0.0,-999.0,89,-99.99,,,0.00,weatherlink.com 1.10,2013-10-07 10:40:00,
2013-10-07 05:54:00,42.2,39.0,29.85,WSW,241,0.0,-999.0,89,-99.99,,,0.00,weatherlink.com 1.10,2013-10-07 10:54:00,
2013-10-07 06:08:00,41.8,39.0,29.86,WSW,241,0.0,-999.0,89,-99.99,,,0.00,weatherlink.com 1.10,2013-10-07 11:08:00,
2013-10-07 06:23:00,41.5,39.0,29.86,WSW,241,0.0,-999.0,89,-99.99,,,0.00,weatherlink.com 1.10,2013-10-07 11:23:00,
2013-10-07 06:37:00,41.3,38.0,29.87,WSW,241,2.0,-999.0,89,-99.99,,,0.00,weatherlink.com 1.10,2013-10-07 11:37:00,
2013-10-07 06:51:00,41.0,38.0,29.87,WSW,241,0.0,-999.0,89,-99.99,,,0.00,weatherlink.com 1.10,2013-10-07 11:51:00,
2013-10-07 07:06:00,40.5,38.0,29.88,WSW,241,0.0,-999.0,89,-99.99,,,0.00,weatherlink.com 1.10,2013-10-07 12:06:00,
2013-10-07 07:20:00,40.2,38.0,29.89,WSW,241,0.0,-999.0,90,-99.99,,,0.00,weatherlink.com 1.10,2013-10-07 12:20:00,
2013-10-07 07:34:00,40.1,37.0,29.89,West,270,1.0,-999.0,90,-99.99,,,0.00,weatherlink.com 1.10,2013-10-07 12:34:00,
2013-10-07 07:49:00,40.4,38.0,29.90,West,267,0.0,-999.0,90,-99.99,,,0.00,weatherlink.com 1.10,2013-10-07 12:49:00,
2013-10-07 08:03:00,41.1,39.0,29.91,WSW,243,0.0,-999.0,91,-99.99,,,0.00,weatherlink.com 1.10,2013-10-07 13:03:00,
2013-10-07 08:17:00,41.7,39.0,29.91,SW,235,0.0,-999.0,91,-99.99,,,0.00,weatherlink.com 1.10,2013-10-07 13:17:00,
2013-10-07 08:32:00,42.8,41.0,29.91,West,259,2.0,-999.0,92,-99.99,,,0.00,weatherlink.com 1.10,2013-10-07 13:32:00,
2013-10-07 08:46:00,46.3,44.0,29.91,NW,316,4.0,-999.0,91,-99.99,,,0.00,weatherlink.com 1.10,2013-10-07 13:46:00,
2013-10-07 09:01:00,48.1,44.0,29.91,West,279,2.0,-999.0,87,-99.99,,,0.00,weatherlink.com 1.10,2013-10-07 14:01:00,
2013-10-07 09:15:00,49.3,45.0,29.92,NNW,334,6.0,-999.0,84,-99.99,,,0.00,weatherlink.com 1.10,2013-10-07 14:15:00,
2013-10-07 09:29:00,50.3,45.0,29.93,NW,320,4.0,-999.0,83,-99.99,,,0.00,weatherlink.com 1.10,2013-10-07 14:29:00,
2013-10-07 09:44:00,51.5,46.0,29.93,NW,325,3.0,-999.0,80,-99.99,,,0.00,weatherlink.com 1.10,2013-10-07 14:44:00,
2013-10-07 09:58:00,52.9,46.0,29.94,NNW,335,3.0,-999.0,78,-99.99,,,0.00,weatherlink.com 1.10,2013-10-07 14:58:00,
2013-10-07 10:12:00,54.0,47.0,29.94,NW,317,3.0,-999.0,76,-99.99,,,0.00,weatherlink.com 1.10,2013-10-07 15:12:00,
2013-10-07 10:27:00,55.1,47.0,29.94,WNW,287,1.0,-999.0,75,-99.99,,,0.00,weatherlink.com 1.10,2013-10-07 15:27:00,
2013-10-07 10:41:00,56.6,48.0,29.95,West,269,3.0,-999.0,73,-99.99,,,0.00,weatherlink.com 1.10,2013-10-07 15:41:00,
2013-10-07 10:55:00,57.1,47.0,29.95,North,355,3.0,-999.0,69,-99.99,,,0.00,weatherlink.com 1.10,2013-10-07 15:55:00,
2013-10-07 11:10:00,58.4,47.0,29.95,NW,321,2.0,-999.0,66,-99.99,,,0.00,weatherlink.com 1.10,2013-10-07 16:10:00,
2013-10-07 11:24:00,59.0,46.0,29.95,NNW,334,0.0,-999.0,62,-99.99,,,0.00,weatherlink.com 1.10,2013-10-07 16:24:00,
2013-10-07 11:39:00,59.9,46.0,29.95,NNW,345,3.0,-999.0,61,-99.99,,,0.00,weatherlink.com 1.10,2013-10-07 16:39:00,
2013-10-07 11:53:00,61.3,48.0,29.95,NW,319,2.0,-999.0,61,-99.99,,,0.00,weatherlink.com 1.10,2013-10-07 16:53:00,
2013-10-07 12:07:00,61.4,46.0,29.95,NW,318,5.0,-999.0,57,-99.99,,,0.00,weatherlink.com 1.10,2013-10-07 17:07:00,
2013-10-07 12:22:00,61.6,44.0,29.95,NW,320,0.0,-999.0,53,-99.99,,,0.00,weatherlink.com 1.10,2013-10-07 17:22:00,
2013-10-07 12:36:00,61.9,46.0,29.95,North,360,4.0,-999.0,56,-99.99,,,0.00,weatherlink.com 1.10,2013-10-07 17:36:00,
2013-10-07 12:50:00,62.5,46.0,29.95,WNW,290,3.0,-999.0,54,-99.99,,,0.00,weatherlink.com 1.10,2013-10-07 17:50:00,
2013-10-07 13:05:00,62.3,43.0,29.95,North,3,2.0,-999.0,50,-99.99,,,0.00,weatherlink.com 1.10,2013-10-07 18:05:00,
2013-10-07 13:19:00,63.4,44.0,29.95,West,275,5.0,-999.0,50,-99.99,,,0.00,weatherlink.com 1.10,2013-10-07 18:19:00,
2013-10-07 13:33:00,63.7,45.0,29.95,NW,307,5.0,-999.0,51,-99.99,,,0.00,weatherlink.com 1.10,2013-10-07 18:33:00,
2013-10-07 13:48:00,64.1,43.0,29.94,WSW,257,0.0,-999.0,47,-99.99,,,0.00,weatherlink.com 1.10,2013-10-07 18:48:00,
2013-10-07 14:02:00,64.3,44.0,29.94,West,271,7.0,-999.0,47,-99.99,,,0.00,weatherlink.com 1.10,2013-10-07 19:02:00,
2013-10-07 14:17:00,64.8,44.0,29.94,NW,312,4.0,-999.0,47,-99.99,,,0.00,weatherlink.com 1.10,2013-10-07 19:17:00,
2013-10-07 14:31:00,64.6,44.0,29.94,WNW,288,1.0,-999.0,47,-99.99,,,0.00,weatherlink.com 1.10,2013-10-07 19:31:00,
2013-10-07 14:45:00,65.7,43.0,29.94,WNW,285,5.0,-999.0,44,-99.99,,,0.00,weatherlink.com 1.10,2013-10-07 19:45:00,
2013-10-07 14:59:00,65.3,43.0,29.94,NW,316,3.0,-999.0,45,-99.99,,,0.00,weatherlink.com 1.10,2013-10-07 19:59:00,
2013-10-07 15:14:00,65.4,42.0,29.94,WNW,285,2.0,-999.0,43,-99.99,,,0.00,weatherlink.com 1.10,2013-10-07 20:14:00,
2013-10-07 15:28:00,66.4,44.0,29.94,SSE,164,3.0,-999.0,45,-99.99,,,0.00,weatherlink.com 1.10,2013-10-07 20:28:00,
2013-10-07 15:43:00,66.1,42.0,29.94,WNW,294,2.0,-999.0,41,-99.99,,,0.00,weatherlink.com 1.10,2013-10-07 20:43:00,
2013-10-07 15:57:00,66.0,43.0,29.93,WSW,256,2.0,-999.0,44,-99.99,,,0.00,weatherlink.com 1.10,2013-10-07 20:57:00,
2013-10-07 16:11:00,66.3,42.0,29.93,South,169,1.0,-999.0,41,-99.99,,,0.00,weatherlink.com 1.10,2013-10-07 21:11:00,
2013-10-07 16:25:00,66.0,42.0,29.93,West,273,2.0,-999.0,41,-99.99,,,0.00,weatherlink.com 1.10,2013-10-07 21:25:00,
2013-10-07 16:40:00,65.6,41.0,29.93,South,183,0.0,-999.0,40,-99.99,,,0.00,weatherlink.com 1.10,2013-10-07 21:40:00,
2013-10-07 16:54:00,65.4,41.0,29.93,West,273,0.0,-999.0,41,-99.99,,,0.00,weatherlink.com 1.10,2013-10-07 21:54:00,
2013-10-07 17:09:00,65.4,44.0,29.93,West,280,0.0,-999.0,46,-99.99,,,0.00,weatherlink.com 1.10,2013-10-07 22:09:00,
2013-10-07 17:23:00,65.0,41.0,29.93,SSW,193,0.0,-999.0,41,-99.99,,,0.00,weatherlink.com 1.10,2013-10-07 22:23:00,
2013-10-07 17:37:00,64.1,43.0,29.93,SSW,193,0.0,-999.0,47,-99.99,,,0.00,weatherlink.com 1.10,2013-10-07 22:37:00,
2013-10-07 17:51:00,62.7,43.0,29.93,SSW,193,0.0,-999.0,49,-99.99,,,0.00,weatherlink.com 1.10,2013-10-07 22:51:00,
2013-10-07 18:06:00,61.3,44.0,29.93,SSW,192,0.0,-999.0,52,-99.99,,,0.00,weatherlink.com 1.10,2013-10-07 23:06:00,
2013-10-07 18:20:00,57.5,46.0,29.94,SSW,193,0.0,-999.0,66,-99.99,,,0.00,weatherlink.com 1.10,2013-10-07 23:20:00,
2013-10-07 18:34:00,56.3,45.0,29.94,SSW,192,0.0,-999.0,65,-99.99,,,0.00,weatherlink.com 1.10,2013-10-07 23:34:00,
2013-10-07 18:49:00,55.2,45.0,29.94,SSW,193,0.0,-999.0,69,-99.99,,,0.00,weatherlink.com 1.10,2013-10-07 23:49:00,
2013-10-07 19:03:00,54.9,45.0,29.94,SSW,193,0.0,-999.0,69,-99.99,,,0.00,weatherlink.com 1.10,2013-10-08 00:03:00,
2013-10-07 19:17:00,54.4,45.0,29.95,SSW,193,0.0,-999.0,70,-99.99,,,0.00,weatherlink.com 1.10,2013-10-08 00:17:00,
2013-10-07 19:32:00,53.5,44.0,29.95,SSW,192,0.0,-999.0,71,-99.99,,,0.00,weatherlink.com 1.10,2013-10-08 00:32:00,
2013-10-07 19:46:00,52.6,44.0,29.95,SSW,193,0.0,-999.0,73,-99.99,,,0.00,weatherlink.com 1.10,2013-10-08 00:46:00,
2013-10-07 20:01:00,51.6,44.0,29.96,SSW,193,0.0,-999.0,74,-99.99,,,0.00,weatherlink.com 1.10,2013-10-08 01:01:00,
2013-10-07 20:15:00,50.8,43.0,29.95,SSW,193,0.0,-999.0,75,-99.99,,,0.00,weatherlink.com 1.10,2013-10-08 01:15:00,
2013-10-07 20:29:00,50.0,43.0,29.96,SSW,192,0.0,-999.0,77,-99.99,,,0.00,weatherlink.com 1.10,2013-10-08 01:29:00,
2013-10-07 20:44:00,49.5,44.0,29.96,SSW,192,0.0,-999.0,81,-99.99,,,0.00,weatherlink.com 1.10,2013-10-08 01:44:00,
2013-10-07 20:58:00,48.9,43.0,29.96,SSW,192,0.0,-999.0,81,-99.99,,,0.00,weatherlink.com 1.10,2013-10-08 01:58:00,
2013-10-07 21:12:00,48.6,44.0,29.95,SSW,192,0.0,-999.0,83,-99.99,,,0.00,weatherlink.com 1.10,2013-10-08 02:12:00,
2013-10-07 21:27:00,48.1,43.0,29.96,SSW,193,0.0,-999.0,84,-99.99,,,0.00,weatherlink.com 1.10,2013-10-08 02:27:00,
2013-10-07 21:41:00,47.8,43.0,29.95,SSW,193,0.0,-999.0,84,-99.99,,,0.00,weatherlink.com 1.10,2013-10-08 02:41:00,
2013-10-07 21:55:00,47.5,43.0,29.96,SSW,193,0.0,-999.0,85,-99.99,,,0.00,weatherlink.com 1.10,2013-10-08 02:55:00,
2013-10-07 22:10:00,47.1,43.0,29.95,SSW,193,0.0,-999.0,86,-99.99,,,0.00,weatherlink.com 1.10,2013-10-08 03:10:00,
2013-10-07 22:24:00,46.8,43.0,29.95,SSW,193,0.0,-999.0,86,-99.99,,,0.00,weatherlink.com 1.10,2013-10-08 03:24:00,
2013-10-07 22:38:00,46.5,43.0,29.95,SSW,193,0.0,-999.0,87,-99.99,,,0.00,weatherlink.com 1.10,2013-10-08 03:38:00,
2013-10-07 22:52:00,46.4,43.0,29.95,SSW,193,0.0,-999.0,87,-99.99,,,0.00,weatherlink.com 1.10,2013-10-08 03:52:00,
2013-10-07 23:07:00,46.4,43.0,29.94,SSW,193,0.0,-999.0,87,-99.99,,,0.00,weatherlink.com 1.10,2013-10-08 04:07:00,
2013-10-07 23:21:00,46.7,43.0,29.94,SSW,192,1.0,-999.0,87,-99.99,,,0.00,weatherlink.com 1.10,2013-10-08 04:21:00,
2013-10-07 23:35:00,47.1,43.0,29.94,SSW,193,0.0,-999.0,86,-99.99,,,0.00,weatherlink.com 1.10,2013-10-08 04:35:00,
2013-10-07 23:50:00,47.4,43.0,29.94,ESE,107,0.0,-999.0,86,-99.99,,,0.00,weatherlink.com 1.10,2013-10-08 04:50:00,